createdAt,value
2017-09-03T00:00:10.940Z,7.60
2017-09-03T00:02:38.603Z,7.83
2017-09-03T00:05:06.312Z,8.27
2017-09-03T00:07:33.960Z,8.10
2017-09-03T00:10:01.656Z,7.77
2017-09-03T00:12:29.303Z,7.53
2017-09-03T00:14:57.003Z,7.57
2017-09-03T00:17:24.660Z,8.10
2017-09-03T00:19:52.380Z,8.87
2017-09-03T00:22:20.083Z,7.53
2017-09-03T00:24:47.747Z,7.70
2017-09-03T00:27:15.454Z,7.87
2017-09-03T00:29:43.111Z,7.53
2017-09-03T00:32:10.821Z,7.60
2017-09-03T00:34:38.500Z,8.63
2017-09-03T00:37:06.214Z,8.13
2017-09-03T00:39:33.876Z,8.13
2017-09-03T00:42:02.352Z,8.10
2017-09-03T00:44:31.205Z,8.53
2017-09-03T00:46:58.915Z,8.20
2017-09-03T00:49:26.637Z,7.53
2017-09-03T00:51:54.448Z,8.03
2017-09-03T00:54:22.114Z,7.40
2017-09-03T00:56:49.820Z,8.67
2017-09-03T00:59:17.501Z,9.20
2017-09-03T01:01:45.199Z,8.03
2017-09-03T01:04:12.908Z,7.80
2017-09-03T01:06:40.673Z,8.03
2017-09-03T01:09:08.391Z,8.23
2017-09-03T01:11:36.164Z,8.90
2017-09-03T01:14:03.867Z,8.23
2017-09-03T01:16:31.593Z,8.17
2017-09-03T01:18:59.264Z,8.73
2017-09-03T01:21:26.984Z,10.00
2017-09-03T01:23:54.644Z,9.07
2017-09-03T01:26:22.343Z,9.20
2017-09-03T01:28:50.007Z,8.10
2017-09-03T01:31:17.708Z,8.17
2017-09-03T01:33:45.396Z,8.43
2017-09-03T01:36:13.121Z,8.43
2017-09-03T01:38:40.773Z,8.17
2017-09-03T01:41:08.479Z,8.93
2017-09-03T01:43:36.136Z,8.97
2017-09-03T01:46:03.840Z,8.70
2017-09-03T01:48:31.491Z,7.77
2017-09-03T01:50:59.912Z,7.10
2017-09-03T01:53:27.614Z,6.30
2017-09-03T01:55:55.280Z,6.33
2017-09-03T01:58:23.064Z,7.80
2017-09-03T02:00:50.740Z,6.70
2017-09-03T02:03:18.419Z,5.67
2017-09-03T02:05:46.174Z,6.20
2017-09-03T02:08:13.835Z,5.30
2017-09-03T02:10:41.592Z,5.57
2017-09-03T02:13:09.255Z,6.93
2017-09-03T02:15:37.004Z,6.80
2017-09-03T02:18:04.784Z,6.90
2017-09-03T02:20:32.462Z,6.30
2017-09-03T02:23:00.155Z,7.50
2017-09-03T02:25:27.947Z,6.90
2017-09-03T02:27:55.607Z,7.57
2017-09-03T02:30:23.299Z,7.63
2017-09-03T02:32:51.056Z,7.70
2017-09-03T02:35:19.483Z,7.90
2017-09-03T02:37:47.234Z,7.87
2017-09-03T02:40:14.900Z,7.50
2017-09-03T02:42:42.665Z,7.57
2017-09-03T02:45:10.325Z,7.80
2017-09-03T02:47:38.080Z,8.20
2017-09-03T02:50:05.752Z,7.90
2017-09-03T02:52:33.507Z,7.63
2017-09-03T02:55:01.270Z,6.43
2017-09-03T02:57:29.035Z,6.50
2017-09-03T02:59:56.803Z,6.60
2017-09-03T03:02:24.467Z,6.83
2017-09-03T03:04:52.227Z,6.40
2017-09-03T03:07:19.908Z,8.03
2017-09-03T03:09:47.616Z,6.80
2017-09-03T03:12:15.407Z,6.73
2017-09-03T03:14:43.081Z,7.20
2017-09-03T03:17:10.855Z,7.80
2017-09-03T03:19:38.522Z,7.47
2017-09-03T03:22:06.196Z,8.30
2017-09-03T03:24:33.951Z,8.80
2017-09-03T03:27:02.483Z,8.67
2017-09-03T03:29:30.151Z,8.20
2017-09-03T03:31:57.828Z,10.57
2017-09-03T03:34:25.588Z,8.80
2017-09-03T03:36:53.253Z,7.70
2017-09-03T03:39:21.803Z,8.60
2017-09-03T03:41:49.471Z,8.07
2017-09-03T03:44:17.136Z,8.80
2017-09-03T03:46:44.904Z,8.33
2017-09-03T03:49:12.576Z,8.37
2017-09-03T03:51:41.007Z,9.20
2017-09-03T03:54:08.768Z,9.63
2017-09-03T03:56:36.442Z,8.93
2017-09-03T03:59:04.196Z,9.67
2017-09-03T04:01:31.966Z,9.70
2017-09-03T04:03:59.639Z,12.20
2017-09-03T04:06:27.424Z,10.33
2017-09-03T04:08:55.087Z,10.77
2017-09-03T04:11:22.841Z,10.53
2017-09-03T04:13:51.369Z,10.43
2017-09-03T04:16:19.050Z,11.07
2017-09-03T04:18:46.808Z,11.67
2017-09-03T04:21:14.607Z,11.37
2017-09-03T04:23:43.035Z,11.63
2017-09-03T04:26:10.702Z,11.90
2017-09-03T04:28:38.466Z,10.73
2017-09-03T04:31:06.136Z,10.30
2017-09-03T04:33:33.901Z,10.67
2017-09-03T04:36:01.567Z,11.40
2017-09-03T04:38:29.329Z,10.87
2017-09-03T04:40:58.374Z,11.20
2017-09-03T04:43:26.045Z,10.47
2017-09-03T04:45:53.812Z,11.23
2017-09-03T04:48:21.481Z,9.30
2017-09-03T04:50:49.249Z,9.80
2017-09-03T04:53:16.925Z,10.60
2017-09-03T04:55:44.689Z,9.87
2017-09-03T04:58:12.454Z,10.90
2017-09-03T05:00:40.122Z,10.33
2017-09-03T05:03:07.912Z,12.27
2017-09-03T05:05:35.580Z,10.97
2017-09-03T05:08:03.380Z,10.40
2017-09-03T05:10:31.180Z,10.20
2017-09-03T05:12:58.851Z,11.50
2017-09-03T05:15:26.553Z,10.50
2017-09-03T05:17:54.313Z,9.07
2017-09-03T05:20:22.075Z,11.33
2017-09-03T05:22:49.776Z,9.50
2017-09-03T05:25:17.543Z,12.60
2017-09-03T05:27:45.975Z,10.60
2017-09-03T05:30:13.736Z,10.63
2017-09-03T05:32:41.412Z,10.63
2017-09-03T05:35:09.187Z,13.50
2017-09-03T05:37:36.866Z,10.50
2017-09-03T05:40:04.629Z,10.17
2017-09-03T05:42:32.432Z,10.50
2017-09-03T05:45:00.103Z,10.37
2017-09-03T05:47:27.775Z,9.97
2017-09-03T05:49:55.558Z,10.20
2017-09-03T05:52:23.221Z,9.73
2017-09-03T05:54:50.928Z,9.60
2017-09-03T05:57:18.691Z,11.10
2017-09-03T05:59:46.348Z,9.40
2017-09-03T06:02:14.008Z,9.63
2017-09-03T06:04:41.767Z,10.50
2017-09-03T06:07:09.438Z,8.90
2017-09-03T06:09:37.216Z,8.80
2017-09-03T06:12:04.879Z,8.40
2017-09-03T06:14:32.551Z,9.77
2017-09-03T06:17:00.305Z,9.27
2017-09-03T06:19:28.082Z,10.00
2017-09-03T06:21:55.842Z,10.33
2017-09-03T06:24:23.602Z,8.60
2017-09-03T06:26:52.031Z,8.90
2017-09-03T06:29:19.790Z,9.67
2017-09-03T06:31:47.555Z,10.13
2017-09-03T06:34:15.319Z,8.63
2017-09-03T06:36:42.981Z,9.87
2017-09-03T06:39:10.786Z,10.17
2017-09-03T06:41:38.462Z,9.87
2017-09-03T06:44:06.134Z,10.90
2017-09-03T06:46:33.916Z,9.70
2017-09-03T06:49:01.581Z,8.70
2017-09-03T06:51:29.255Z,8.70
2017-09-03T06:53:57.023Z,8.60
2017-09-03T06:56:24.699Z,9.23
2017-09-03T06:58:52.471Z,8.90
2017-09-03T07:01:20.131Z,9.90
2017-09-03T07:03:47.905Z,9.10
2017-09-03T07:06:15.589Z,9.20
2017-09-03T07:08:43.355Z,9.70
2017-09-03T07:11:11.020Z,9.20
2017-09-03T07:13:38.793Z,8.33
2017-09-03T07:16:06.459Z,8.20
2017-09-03T07:18:34.144Z,7.70
2017-09-03T07:21:01.912Z,8.47
2017-09-03T07:23:29.699Z,8.90
2017-09-03T07:25:57.368Z,9.87
2017-09-03T07:28:25.137Z,8.90
2017-09-03T07:30:52.904Z,9.40
2017-09-03T07:33:20.563Z,9.40
2017-09-03T07:35:48.333Z,10.17
2017-09-03T07:38:16.026Z,12.63
2017-09-03T07:40:43.810Z,10.80
2017-09-03T07:43:11.483Z,9.57
2017-09-03T07:45:39.176Z,9.70
2017-09-03T07:48:06.940Z,8.90
2017-09-03T07:50:34.612Z,9.10
2017-09-03T07:53:02.415Z,10.27
2017-09-03T07:55:30.088Z,10.27
2017-09-03T07:57:57.864Z,9.17
2017-09-03T08:00:25.537Z,9.93
2017-09-03T08:02:53.296Z,9.93
2017-09-03T08:05:21.064Z,10.07
2017-09-03T08:07:48.757Z,9.27
2017-09-03T08:10:16.556Z,10.80
2017-09-03T08:12:44.235Z,10.27
2017-09-03T08:15:11.903Z,10.10
2017-09-03T08:17:39.685Z,10.40
2017-09-03T08:20:07.364Z,11.10
2017-09-03T08:22:35.055Z,10.87
2017-09-03T08:25:02.827Z,11.27
2017-09-03T08:27:30.608Z,14.23
2017-09-03T08:29:58.271Z,11.73
2017-09-03T08:32:25.956Z,11.03
2017-09-03T08:34:53.734Z,11.20
2017-09-03T08:37:21.503Z,11.20
2017-09-03T08:39:49.295Z,11.60
2017-09-03T08:42:16.980Z,10.30
2017-09-03T08:44:44.735Z,10.93
2017-09-03T08:47:12.402Z,11.87
2017-09-03T08:49:40.175Z,11.07
2017-09-03T08:52:07.843Z,18.80
2017-09-03T08:54:35.519Z,14.87
2017-09-03T08:57:03.298Z,12.47
2017-09-03T08:59:30.971Z,11.23
2017-09-03T09:01:58.728Z,10.30
2017-09-03T09:04:26.394Z,10.80
2017-09-03T09:06:54.157Z,10.73
2017-09-03T09:09:21.826Z,10.90
2017-09-03T09:11:49.617Z,10.37
2017-09-03T09:14:17.324Z,10.30
2017-09-03T09:16:44.995Z,11.10
2017-09-03T09:19:12.808Z,11.10
2017-09-03T09:21:40.604Z,11.07
2017-09-03T09:24:08.422Z,11.00
2017-09-03T09:26:36.136Z,10.80
2017-09-03T09:29:03.847Z,11.20
2017-09-03T09:31:31.664Z,9.70
2017-09-03T09:33:59.332Z,11.00
2017-09-03T09:36:27.003Z,10.60
2017-09-03T09:38:54.775Z,9.00
2017-09-03T09:41:22.448Z,9.20
2017-09-03T09:43:50.255Z,11.07
2017-09-03T09:46:17.966Z,11.83
2017-09-03T09:48:45.777Z,10.63
2017-09-03T09:51:13.484Z,9.67
2017-09-03T09:53:41.308Z,9.53
2017-09-03T09:56:09.176Z,9.73
2017-09-03T09:58:36.890Z,9.73
2017-09-03T10:01:04.685Z,9.57
2017-09-03T10:03:32.452Z,9.47
2017-09-03T10:06:00.125Z,9.10
2017-09-03T10:08:27.808Z,10.20
2017-09-03T10:10:55.570Z,8.70
2017-09-03T10:13:23.277Z,8.40
2017-09-03T10:15:51.043Z,8.70
2017-09-03T10:18:19.482Z,8.50
2017-09-03T10:20:47.244Z,9.50
2017-09-03T10:23:14.911Z,8.70
2017-09-03T10:25:42.585Z,8.30
2017-09-03T10:28:10.355Z,8.50
2017-09-03T10:30:38.031Z,8.60
2017-09-03T10:33:05.687Z,8.60
2017-09-03T10:35:33.457Z,8.60
2017-09-03T10:38:01.136Z,7.93
2017-09-03T10:40:28.936Z,8.63
2017-09-03T10:42:56.653Z,7.00
2017-09-03T10:45:24.409Z,6.40
2017-09-03T10:47:52.081Z,6.40
2017-09-03T10:50:19.860Z,6.20
2017-09-03T10:52:48.484Z,5.03
2017-09-03T10:55:16.153Z,5.00
2017-09-03T10:57:43.903Z,4.70
2017-09-03T11:00:11.563Z,5.23
2017-09-03T11:02:39.331Z,5.13
2017-09-03T11:05:06.991Z,4.37
2017-09-03T11:07:34.743Z,3.77
2017-09-03T11:10:02.416Z,3.17
2017-09-03T11:12:30.193Z,3.83
2017-09-03T11:14:57.852Z,3.53
2017-09-03T11:17:25.515Z,4.00
2017-09-03T11:19:53.436Z,3.40
2017-09-03T11:22:21.096Z,3.30
2017-09-03T11:24:48.751Z,3.33
2017-09-03T11:27:16.479Z,3.33
2017-09-03T11:29:44.135Z,3.40
2017-09-03T11:32:11.855Z,3.13
2017-09-03T11:34:40.275Z,3.37
2017-09-03T11:37:07.991Z,3.37
2017-09-03T11:39:35.661Z,2.23
2017-09-03T11:42:03.399Z,3.17
2017-09-03T11:44:31.083Z,3.70
2017-09-03T11:46:59.514Z,3.63
2017-09-03T11:49:27.232Z,2.70
2017-09-03T11:51:54.928Z,3.07
2017-09-03T11:54:22.685Z,2.60
2017-09-03T11:56:50.354Z,3.00
2017-09-03T11:59:18.024Z,2.87
2017-09-03T12:01:45.739Z,3.30
2017-09-03T12:04:13.404Z,2.90
2017-09-03T12:06:41.128Z,2.77
2017-09-03T12:09:08.796Z,3.03
2017-09-03T12:11:37.288Z,2.47
2017-09-03T12:14:04.952Z,2.60
2017-09-03T12:16:32.683Z,2.37
2017-09-03T12:19:00.347Z,2.50
2017-09-03T12:21:28.024Z,3.30
2017-09-03T12:23:55.748Z,3.10
2017-09-03T12:26:23.416Z,3.17
2017-09-03T12:28:51.144Z,3.43
2017-09-03T12:31:18.812Z,2.80
2017-09-03T12:33:46.556Z,2.90
2017-09-03T12:36:14.224Z,2.87
2017-09-03T12:38:41.888Z,2.57
2017-09-03T12:41:09.625Z,2.27
2017-09-03T12:43:37.287Z,2.30
2017-09-03T12:46:04.957Z,2.17
2017-09-03T12:48:32.691Z,2.17
2017-09-03T12:51:00.376Z,2.23
2017-09-03T12:53:28.099Z,2.10
2017-09-03T12:55:55.763Z,2.30
2017-09-03T12:58:23.427Z,2.30
2017-09-03T13:00:51.151Z,2.50
2017-09-03T13:03:18.880Z,2.30
2017-09-03T13:05:46.560Z,2.27
2017-09-03T13:08:14.287Z,2.50
2017-09-03T13:10:42.884Z,2.27
2017-09-03T13:13:11.612Z,2.20
2017-09-03T13:15:39.280Z,2.17
2017-09-03T13:18:07.003Z,2.73
2017-09-03T13:20:34.712Z,2.40
2017-09-03T13:23:02.432Z,2.13
2017-09-03T13:25:30.142Z,2.30
2017-09-03T13:27:57.859Z,2.17
2017-09-03T13:30:25.541Z,2.60
2017-09-03T13:32:53.264Z,2.90
2017-09-03T13:35:20.940Z,2.60
2017-09-03T13:37:48.693Z,2.90
2017-09-03T13:40:16.372Z,2.93
2017-09-03T13:42:44.109Z,2.80
2017-09-03T13:45:11.850Z,7.57
2017-09-03T13:47:39.507Z,3.00
2017-09-03T13:50:07.224Z,3.10
2017-09-03T13:52:34.903Z,2.67
2017-09-03T13:55:02.653Z,3.33
2017-09-03T13:57:30.336Z,2.70
2017-09-03T13:59:58.012Z,2.40
2017-09-03T14:02:25.742Z,2.70
2017-09-03T14:04:53.416Z,2.90
2017-09-03T14:07:21.139Z,2.50
2017-09-03T14:09:48.808Z,2.67
2017-09-03T14:12:16.564Z,2.83
2017-09-03T14:14:44.235Z,3.10
2017-09-03T14:17:11.963Z,3.53
2017-09-03T14:19:39.627Z,2.13
2017-09-03T14:22:07.353Z,2.83
2017-09-03T14:24:35.077Z,2.87
2017-09-03T14:27:02.748Z,3.20
2017-09-03T14:29:30.491Z,2.87
2017-09-03T14:31:58.152Z,3.17
2017-09-03T14:34:25.883Z,3.27
2017-09-03T14:36:53.543Z,2.73
2017-09-03T14:39:21.205Z,2.70
2017-09-03T14:41:48.937Z,3.70
2017-09-03T14:44:16.617Z,3.07
2017-09-03T14:46:44.366Z,3.80
2017-09-03T14:49:12.039Z,3.20
2017-09-03T14:51:39.791Z,3.67
2017-09-03T14:54:07.473Z,3.30
2017-09-03T14:56:35.239Z,3.50
2017-09-03T14:59:02.911Z,3.50
2017-09-03T15:01:30.585Z,3.23
2017-09-03T15:03:58.329Z,3.30
2017-09-03T15:06:26.055Z,3.80
2017-09-03T15:08:53.784Z,3.00
2017-09-03T15:11:21.453Z,3.00
2017-09-03T15:13:49.192Z,3.03
2017-09-03T15:16:16.923Z,6.03
2017-09-03T15:18:44.596Z,7.10
2017-09-03T15:21:12.328Z,3.60
2017-09-03T15:23:40.041Z,3.27
2017-09-03T15:26:07.730Z,3.90
2017-09-03T15:28:35.469Z,3.57
2017-09-03T15:31:03.147Z,4.00
2017-09-03T15:33:30.823Z,3.60
2017-09-03T15:35:58.631Z,3.60
2017-09-03T15:38:26.295Z,3.50
2017-09-03T15:40:54.035Z,3.20
2017-09-03T15:43:21.700Z,3.93
2017-09-03T15:45:49.415Z,4.33
2017-09-03T15:48:17.080Z,3.63
2017-09-03T15:50:44.826Z,3.70
2017-09-03T15:53:12.489Z,4.10
2017-09-03T15:55:40.191Z,3.70
2017-09-03T15:58:07.948Z,3.70
2017-09-03T16:00:35.613Z,3.77
2017-09-03T16:03:03.349Z,3.63
2017-09-03T16:05:31.032Z,4.00
2017-09-03T16:07:58.766Z,3.20
2017-09-03T16:10:26.436Z,4.17
2017-09-03T16:12:54.508Z,3.90
2017-09-03T16:15:22.183Z,3.53
2017-09-03T16:17:50.634Z,4.00
2017-09-03T16:20:18.441Z,4.10
2017-09-03T16:22:46.119Z,4.07
2017-09-03T16:25:13.820Z,4.00
2017-09-03T16:27:41.552Z,4.37
2017-09-03T16:30:09.236Z,3.63
2017-09-03T16:32:36.967Z,2.97
2017-09-03T16:35:04.637Z,3.10
2017-09-03T16:37:32.368Z,3.43
2017-09-03T16:40:00.098Z,3.20
2017-09-03T16:42:27.823Z,4.07
2017-09-03T16:44:55.556Z,4.03
2017-09-03T16:47:23.260Z,3.03
2017-09-03T16:49:50.979Z,3.10
2017-09-03T16:52:28.609Z,3.23
2017-09-03T16:54:56.307Z,3.27
2017-09-03T16:57:24.069Z,3.10
2017-09-03T16:59:51.793Z,3.17
2017-09-03T17:02:19.556Z,3.17
2017-09-03T17:04:47.268Z,3.07
2017-09-03T17:07:15.054Z,3.27
2017-09-03T17:09:42.813Z,3.80
2017-09-03T17:12:10.519Z,5.43
2017-09-03T17:14:38.292Z,5.23
2017-09-03T17:17:05.992Z,3.10
2017-09-03T17:19:33.715Z,3.17
2017-09-03T17:22:02.306Z,2.83
2017-09-03T17:24:30.071Z,2.70
2017-09-03T17:26:57.781Z,3.30
2017-09-03T17:29:25.552Z,3.30
2017-09-03T17:31:53.263Z,3.30
2017-09-03T17:34:21.023Z,2.60
2017-09-03T17:39:52.366Z,2.83
2017-09-03T17:42:21.805Z,2.83
2017-09-03T17:44:49.512Z,3.60
2017-09-03T17:47:17.224Z,3.10
2017-09-03T17:49:45.024Z,2.77
2017-09-03T17:52:12.728Z,3.03
2017-09-03T17:54:40.439Z,3.50
2017-09-03T17:57:08.200Z,3.50
2017-09-03T17:59:35.911Z,3.80
2017-09-03T18:02:03.667Z,3.03
2017-09-03T18:04:32.343Z,3.00
2017-09-03T18:07:00.051Z,3.00
2017-09-03T18:09:27.827Z,2.50
2017-09-03T18:11:55.528Z,2.77
2017-09-03T18:14:23.227Z,3.50
2017-09-03T18:16:50.980Z,3.47
2017-09-03T18:19:18.739Z,3.40
2017-09-03T18:21:46.516Z,3.50
2017-09-03T18:24:14.219Z,3.40
2017-09-03T18:26:42.032Z,3.80
2017-09-03T18:29:10.734Z,3.57
2017-09-03T18:31:38.440Z,3.37
2017-09-03T18:34:06.269Z,3.10
2017-09-03T18:36:45.836Z,3.77
2017-09-03T18:39:26.391Z,3.57
2017-09-03T18:41:54.213Z,2.83
2017-09-03T18:44:22.688Z,3.00
2017-09-03T18:46:55.212Z,3.07
2017-09-03T18:49:22.907Z,3.57
2017-09-03T18:51:56.187Z,3.40
2017-09-03T18:54:23.896Z,3.20
2017-09-03T18:56:51.637Z,3.33
2017-09-03T18:59:19.404Z,3.60
2017-09-03T19:01:49.744Z,4.20
2017-09-03T19:04:20.146Z,3.50
2017-09-03T19:06:47.859Z,3.77
2017-09-03T19:09:15.642Z,3.30
2017-09-03T19:11:43.441Z,3.60
2017-09-03T19:14:11.141Z,3.20
2017-09-03T19:16:38.904Z,3.10
2017-09-03T19:19:06.614Z,3.60
2017-09-03T19:21:34.379Z,3.10
2017-09-03T19:24:02.083Z,3.50
2017-09-03T19:26:29.847Z,3.33
2017-09-03T19:28:57.568Z,5.10
2017-09-03T19:31:25.336Z,4.10
2017-09-03T19:33:53.040Z,3.33
2017-09-03T19:36:20.804Z,3.80
2017-09-03T19:38:48.564Z,3.70
2017-09-03T19:41:16.316Z,3.47
2017-09-03T19:43:44.043Z,3.70
2017-09-03T19:46:11.725Z,2.97
2017-09-03T19:48:39.397Z,4.50
2017-09-03T19:51:07.124Z,3.43
2017-09-03T19:53:34.787Z,3.23
2017-09-03T19:56:02.504Z,3.67
2017-09-03T19:58:30.168Z,3.33
2017-09-03T20:00:57.884Z,3.77
2017-09-03T20:03:25.560Z,3.80
2017-09-03T20:05:53.292Z,3.40
2017-09-03T20:08:20.963Z,3.33
2017-09-03T20:10:48.694Z,3.70
2017-09-03T20:13:16.355Z,3.07
2017-09-03T20:15:44.094Z,3.20
2017-09-03T20:18:11.771Z,3.60
2017-09-03T20:20:39.428Z,3.27
2017-09-03T20:23:07.151Z,3.00
2017-09-03T20:25:34.825Z,3.20
2017-09-03T20:28:02.564Z,3.47
2017-09-03T20:30:30.223Z,3.20
2017-09-03T20:32:57.885Z,4.00
2017-09-03T20:35:25.613Z,3.70
2017-09-03T20:37:53.288Z,2.90
2017-09-03T20:40:21.044Z,3.47
2017-09-03T20:42:48.708Z,3.53
2017-09-03T20:45:16.382Z,3.20
2017-09-03T20:47:44.112Z,3.90
2017-09-03T20:50:11.784Z,3.60
2017-09-03T20:52:39.509Z,3.37
2017-09-03T20:55:07.173Z,3.50
2017-09-03T20:57:34.914Z,3.40
2017-09-03T21:00:02.593Z,2.93
2017-09-03T21:02:30.291Z,3.53
2017-09-03T21:04:58.060Z,3.80
2017-09-03T21:07:25.762Z,3.43
2017-09-03T21:09:53.501Z,3.63
2017-09-03T21:12:21.172Z,3.40
2017-09-03T21:14:48.853Z,4.07
2017-09-03T21:17:16.572Z,4.40
2017-09-03T21:19:44.317Z,4.20
2017-09-03T21:22:12.009Z,4.20
2017-09-03T21:24:39.743Z,3.80
2017-09-03T21:27:07.404Z,3.70
2017-09-03T21:29:35.082Z,4.03
2017-09-03T21:32:02.811Z,3.40
2017-09-03T21:34:30.475Z,3.60
2017-09-03T21:36:58.189Z,3.10
2017-09-03T21:39:25.853Z,3.27
2017-09-03T21:41:53.575Z,3.70
2017-09-03T21:44:21.313Z,3.80
2017-09-03T21:46:48.983Z,3.67
2017-09-03T21:49:16.671Z,3.50
2017-09-03T21:51:44.391Z,2.90
2017-09-03T21:54:12.107Z,3.53
2017-09-03T21:56:39.771Z,3.23
2017-09-03T21:59:07.492Z,3.63
2017-09-03T22:01:35.150Z,3.70
2017-09-03T22:04:02.879Z,3.00
2017-09-03T22:06:30.620Z,3.17
2017-09-03T22:08:58.291Z,2.70
2017-09-03T22:11:26.004Z,3.37
2017-09-03T22:13:53.679Z,3.17
2017-09-03T22:16:21.396Z,3.00
2017-09-03T22:18:49.067Z,3.80
2017-09-03T22:21:16.797Z,3.00
2017-09-03T22:23:44.526Z,2.73
2017-09-03T22:26:12.196Z,3.00
2017-09-03T22:28:39.932Z,3.20
2017-09-03T22:31:07.595Z,3.07
2017-09-03T22:33:35.264Z,3.33
2017-09-03T22:36:02.976Z,3.00
2017-09-03T22:38:30.733Z,2.70
2017-09-03T22:40:58.464Z,3.37
2017-09-03T22:43:26.131Z,3.20
2017-09-03T22:45:53.864Z,2.93
2017-09-03T22:48:21.523Z,3.90
2017-09-03T22:50:49.259Z,3.33
2017-09-03T22:53:16.935Z,3.00
2017-09-03T22:55:44.646Z,2.90
2017-09-03T22:58:12.371Z,3.07
2017-09-03T23:00:40.052Z,3.37
2017-09-03T23:03:07.779Z,3.50
2017-09-03T23:05:35.447Z,3.00
2017-09-03T23:08:03.160Z,3.60
2017-09-03T23:10:30.887Z,4.10
2017-09-03T23:12:58.616Z,3.57
2017-09-03T23:15:26.308Z,3.30
2017-09-03T23:17:53.974Z,3.43
2017-09-03T23:20:21.743Z,4.20
2017-09-03T23:22:49.404Z,3.67
2017-09-03T23:25:17.132Z,3.70
2017-09-03T23:27:44.867Z,3.70
2017-09-03T23:30:12.522Z,3.80
2017-09-03T23:32:40.198Z,4.17
2017-09-03T23:35:07.916Z,3.60
2017-09-03T23:37:35.578Z,3.50
2017-09-03T23:40:03.316Z,3.20
2017-09-03T23:42:31.054Z,3.53
2017-09-03T23:44:58.729Z,3.93
2017-09-03T23:47:26.392Z,3.60
2017-09-03T23:49:54.158Z,3.87
2017-09-03T23:52:21.822Z,3.27
2017-09-03T23:54:49.553Z,3.33
2017-09-03T23:57:17.229Z,4.00
2017-09-03T23:59:44.900Z,3.23
